createdAt,value
2022-07-25T00:01:43.293Z,27.30
2022-07-25T00:04:12.330Z,27.29
2022-07-25T00:06:39.414Z,27.23
2022-07-25T00:09:06.066Z,27.25
2022-07-25T00:11:32.686Z,27.06
2022-07-25T00:13:59.628Z,27.11
2022-07-25T00:16:26.454Z,27.15
2022-07-25T00:18:53.037Z,27.03
2022-07-25T00:21:19.641Z,27.02
2022-07-25T00:23:46.137Z,26.96
2022-07-25T00:26:12.805Z,26.89
2022-07-25T00:28:39.360Z,26.80
2022-07-25T00:31:06.074Z,26.75
2022-07-25T00:33:33.295Z,26.82
2022-07-25T00:35:59.821Z,26.78
2022-07-25T00:38:26.349Z,26.70
2022-07-25T00:40:55.504Z,26.63
2022-07-25T00:43:22.696Z,26.64
2022-07-25T00:45:49.234Z,26.56
2022-07-25T00:48:15.761Z,26.60
2022-07-25T00:50:42.826Z,26.48
2022-07-25T00:53:09.386Z,26.39
2022-07-25T00:55:35.924Z,26.48
2022-07-25T00:58:02.658Z,26.44
2022-07-25T01:00:29.289Z,26.39
2022-07-25T01:02:56.909Z,26.34
2022-07-25T01:05:24.605Z,26.31
2022-07-25T01:07:52.152Z,26.23
2022-07-25T01:10:18.785Z,26.27
2022-07-25T01:12:51.754Z,26.18
2022-07-25T01:15:23.064Z,26.12
2022-07-25T01:17:50.686Z,26.04
2022-07-25T01:20:20.571Z,26.00
2022-07-25T01:22:47.169Z,26.06
2022-07-25T01:25:14.836Z,25.98
2022-07-25T01:27:41.950Z,25.89
2022-07-25T01:30:11.060Z,25.85
2022-07-25T01:32:38.045Z,25.85
2022-07-25T01:35:06.174Z,25.83
2022-07-25T01:37:32.756Z,25.83
2022-07-25T01:39:59.263Z,25.82
2022-07-25T01:42:25.863Z,25.82
2022-07-25T01:44:52.414Z,25.67
2022-07-25T01:47:18.964Z,25.70
2022-07-25T01:49:45.561Z,25.68
2022-07-25T01:52:12.943Z,25.54
2022-07-25T01:54:40.688Z,25.56
2022-07-25T01:57:10.508Z,25.46
2022-07-25T01:59:41.077Z,25.47
2022-07-25T02:02:08.794Z,25.41
2022-07-25T02:04:36.159Z,25.47
2022-07-25T02:07:03.635Z,25.43
2022-07-25T02:09:32.422Z,25.39
2022-07-25T02:11:58.971Z,25.40
2022-07-25T02:14:25.498Z,25.37
2022-07-25T02:16:52.111Z,25.35
2022-07-25T02:19:18.706Z,25.37
2022-07-25T02:21:45.235Z,25.31
2022-07-25T02:24:11.751Z,25.30
2022-07-25T02:26:38.271Z,25.29
2022-07-25T02:29:04.777Z,25.21
2022-07-25T02:31:31.312Z,25.25
2022-07-25T02:33:57.846Z,25.18
2022-07-25T02:36:24.523Z,25.06
2022-07-25T02:38:51.385Z,25.01
2022-07-25T02:41:17.896Z,25.01
2022-07-25T02:43:44.396Z,25.03
2022-07-25T02:46:10.988Z,24.98
2022-07-25T02:48:37.696Z,24.84
2022-07-25T02:51:04.245Z,24.94
2022-07-25T02:53:54.890Z,24.83
2022-07-25T02:56:17.474Z,24.82
2022-07-25T02:58:47.804Z,24.83
2022-07-25T03:01:14.488Z,24.75
2022-07-25T03:03:41.106Z,24.73
2022-07-25T03:06:07.996Z,24.67
2022-07-25T03:08:34.548Z,24.72
2022-07-25T03:11:01.103Z,24.62
2022-07-25T03:13:27.633Z,24.62
2022-07-25T03:15:54.168Z,24.59
2022-07-25T03:18:20.678Z,24.47
2022-07-25T03:20:47.232Z,24.47
2022-07-25T03:23:13.774Z,24.39
2022-07-25T03:25:40.325Z,24.43
2022-07-25T03:28:06.953Z,24.48
2022-07-25T03:30:33.573Z,24.53
2022-07-25T03:33:00.095Z,24.41
2022-07-25T03:35:26.612Z,24.40
2022-07-25T03:37:53.921Z,24.41
2022-07-25T03:40:20.645Z,24.38
2022-07-25T03:42:47.186Z,24.41
2022-07-25T03:45:13.725Z,24.29
2022-07-25T03:47:40.264Z,24.27
2022-07-25T03:50:07.063Z,24.28
2022-07-25T03:52:33.644Z,24.22
2022-07-25T03:55:00.207Z,24.19
2022-07-25T03:57:26.705Z,24.20
2022-07-25T03:59:53.253Z,24.12
2022-07-25T04:02:19.853Z,24.10
2022-07-25T04:04:46.787Z,24.11
2022-07-25T04:07:13.404Z,24.11
2022-07-25T04:09:39.974Z,24.02
2022-07-25T04:12:06.912Z,24.09
2022-07-25T04:14:34.036Z,24.05
2022-07-25T04:17:00.716Z,23.99
2022-07-25T04:19:28.338Z,24.02
2022-07-25T04:21:55.704Z,23.91
2022-07-25T04:24:22.233Z,24.00
2022-07-25T04:26:48.832Z,23.89
2022-07-25T04:29:16.072Z,23.94
2022-07-25T04:31:42.625Z,23.90
2022-07-25T04:34:09.436Z,23.80
2022-07-25T04:36:36.262Z,23.94
2022-07-25T04:39:02.850Z,23.82
2022-07-25T04:41:29.363Z,23.90
2022-07-25T04:43:55.894Z,23.94
2022-07-25T04:46:23.069Z,23.96
2022-07-25T04:48:50.514Z,24.01
2022-07-25T04:51:17.438Z,23.97
2022-07-25T04:53:44.302Z,23.98
2022-07-25T04:56:10.862Z,23.93
2022-07-25T04:58:37.508Z,23.96
2022-07-25T05:01:04.102Z,23.91
2022-07-25T05:03:30.633Z,23.83
2022-07-25T05:05:57.150Z,23.79
2022-07-25T05:08:23.640Z,23.78
2022-07-25T05:10:50.172Z,23.88
2022-07-25T05:13:20.533Z,23.87
2022-07-25T05:15:47.056Z,23.78
2022-07-25T05:18:13.593Z,23.70
2022-07-25T05:20:40.101Z,23.79
2022-07-25T05:23:06.680Z,23.84
2022-07-25T05:25:33.581Z,23.62
2022-07-25T05:28:00.433Z,23.66
2022-07-25T05:30:27.074Z,23.70
2022-07-25T05:32:53.930Z,23.76
2022-07-25T05:35:20.506Z,23.68
2022-07-25T05:37:47.147Z,23.74
2022-07-25T05:40:13.741Z,23.67
2022-07-25T05:42:40.377Z,23.52
2022-07-25T05:45:07.338Z,23.48
2022-07-25T05:47:34.240Z,23.36
2022-07-25T05:50:01.640Z,23.50
2022-07-25T05:52:28.248Z,23.34
2022-07-25T05:54:54.782Z,23.38
2022-07-25T05:57:21.291Z,23.38
2022-07-25T05:59:47.820Z,23.30
2022-07-25T06:02:14.589Z,23.21
2022-07-25T06:04:41.320Z,23.19
2022-07-25T06:07:08.015Z,23.15
2022-07-25T06:09:35.249Z,23.03
2022-07-25T06:12:01.882Z,23.07
2022-07-25T06:14:29.640Z,23.07
2022-07-25T06:16:56.698Z,23.09
2022-07-25T06:19:23.519Z,23.18
2022-07-25T06:21:50.081Z,23.19
2022-07-25T06:24:16.627Z,23.11
2022-07-25T06:26:43.144Z,23.22
2022-07-25T06:29:09.776Z,23.12
2022-07-25T06:31:36.359Z,22.95
2022-07-25T06:34:03.185Z,22.85
2022-07-25T06:36:32.552Z,22.82
2022-07-25T06:38:59.817Z,22.71
2022-07-25T06:41:26.727Z,22.81
2022-07-25T06:43:53.276Z,22.79
2022-07-25T06:46:19.920Z,22.78
2022-07-25T06:48:46.826Z,22.89
2022-07-25T06:51:13.519Z,22.82
2022-07-25T06:53:40.149Z,22.89
2022-07-25T06:56:06.916Z,22.86
2022-07-25T06:58:33.921Z,22.89
2022-07-25T07:01:01.214Z,22.83
2022-07-25T07:03:28.101Z,22.90
2022-07-25T07:05:55.132Z,22.77
2022-07-25T07:08:21.680Z,22.82
2022-07-25T07:10:48.495Z,22.85
2022-07-25T07:13:20.725Z,22.75
2022-07-25T07:15:50.835Z,22.86
2022-07-25T07:18:18.272Z,22.83
2022-07-25T07:20:45.014Z,22.87
2022-07-25T07:23:11.872Z,22.93
2022-07-25T07:25:43.728Z,22.97
2022-07-25T07:28:10.602Z,23.03
2022-07-25T07:31:05.814Z,23.03
2022-07-25T07:33:23.709Z,22.95
2022-07-25T07:35:50.242Z,23.00
2022-07-25T07:38:17.885Z,22.93
2022-07-25T07:40:44.412Z,22.99
2022-07-25T07:43:10.962Z,22.98
2022-07-25T07:45:37.527Z,23.00
2022-07-25T07:48:06.004Z,23.02
2022-07-25T07:50:32.574Z,22.97
2022-07-25T07:52:59.075Z,22.88
2022-07-25T07:56:04.954Z,22.98
2022-07-25T07:58:31.451Z,23.03
2022-07-25T08:00:57.964Z,23.13
2022-07-25T08:03:24.509Z,23.11
2022-07-25T08:05:51.985Z,23.15
2022-07-25T08:08:18.807Z,23.03
2022-07-25T08:10:48.910Z,23.03
2022-07-25T08:13:18.273Z,23.10
2022-07-25T08:15:48.685Z,23.13
2022-07-25T08:18:17.565Z,23.26
2022-07-25T08:20:45.500Z,23.23
2022-07-25T08:23:12.224Z,23.27
2022-07-25T08:25:39.371Z,23.19
2022-07-25T08:28:09.014Z,23.13
2022-07-25T08:30:37.973Z,23.19
2022-07-25T08:33:07.567Z,23.18
2022-07-25T08:35:35.304Z,23.15
2022-07-25T08:38:03.640Z,23.22
2022-07-25T08:40:31.475Z,23.23
2022-07-25T08:42:58.593Z,23.22
2022-07-25T08:45:27.954Z,23.36
2022-07-25T08:47:55.605Z,23.42
2022-07-25T08:50:25.206Z,23.52
2022-07-25T08:53:04.578Z,23.56
2022-07-25T08:55:36.848Z,23.65
2022-07-25T08:58:03.454Z,23.52
2022-07-25T09:00:30.003Z,23.54
2022-07-25T09:02:59.166Z,23.59
2022-07-25T09:05:26.934Z,23.56
2022-07-25T09:07:54.515Z,23.50
2022-07-25T09:10:22.897Z,23.63
2022-07-25T09:13:08.314Z,23.79
2022-07-25T09:15:50.154Z,23.86
2022-07-25T09:18:22.073Z,23.79
2022-07-25T09:20:51.467Z,23.83
2022-07-25T09:23:35.965Z,23.89
2022-07-25T09:26:12.541Z,23.95
2022-07-25T09:28:48.185Z,23.94
2022-07-25T09:31:16.950Z,23.90
2022-07-25T09:33:56.366Z,23.96
2022-07-25T09:36:23.532Z,23.98
2022-07-25T09:38:59.290Z,23.99
2022-07-25T09:41:36.270Z,24.09
2022-07-25T09:44:04.230Z,24.21
2022-07-25T09:46:32.730Z,24.10
2022-07-25T09:49:00.645Z,24.14
2022-07-25T09:51:28.596Z,24.23
2022-07-25T09:53:55.202Z,24.32
2022-07-25T09:56:21.752Z,24.28
2022-07-25T09:58:48.277Z,24.44
2022-07-25T10:01:21.596Z,24.42
2022-07-25T10:03:50.874Z,24.39
2022-07-25T10:06:20.848Z,24.41
2022-07-25T10:08:49.540Z,24.47
2022-07-25T10:11:25.283Z,24.73
2022-07-25T10:13:55.280Z,24.73
2022-07-25T10:16:27.390Z,24.75
2022-07-25T10:18:58.277Z,24.89
2022-07-25T10:21:28.335Z,24.95
2022-07-25T10:24:00.957Z,24.93
2022-07-25T10:26:27.755Z,24.80
2022-07-25T10:28:56.138Z,24.74
2022-07-25T10:31:34.799Z,24.74
2022-07-25T10:34:07.324Z,24.84
2022-07-25T10:36:51.611Z,24.83
2022-07-25T10:39:19.802Z,24.80
2022-07-25T10:42:03.025Z,24.96
2022-07-25T10:44:49.618Z,24.99
2022-07-25T10:47:17.610Z,25.09
2022-07-25T10:50:06.803Z,25.07
2022-07-25T10:52:41.139Z,25.33
2022-07-25T10:55:08.334Z,25.33
2022-07-25T10:57:35.766Z,25.19
2022-07-25T11:00:07.750Z,25.12
2022-07-25T11:02:34.433Z,25.07
2022-07-25T11:05:03.045Z,25.06
2022-07-25T11:07:35.851Z,24.99
2022-07-25T11:10:05.064Z,24.84
2022-07-25T11:12:31.689Z,24.84
2022-07-25T11:15:07.071Z,24.76
2022-07-25T11:17:34.316Z,24.58
2022-07-25T11:20:07.132Z,24.50
2022-07-25T11:22:37.183Z,24.48
2022-07-25T11:25:11.532Z,24.36
2022-07-25T11:27:38.367Z,24.32
2022-07-25T11:30:14.182Z,24.24
2022-07-25T11:32:43.118Z,24.38
2022-07-25T11:35:11.165Z,24.35
2022-07-25T11:37:41.756Z,24.36
2022-07-25T11:40:09.401Z,24.43
2022-07-25T11:42:47.779Z,24.62
2022-07-25T11:45:21.354Z,24.71
2022-07-25T11:47:51.189Z,24.73
2022-07-25T11:50:17.767Z,24.75
2022-07-25T11:52:45.637Z,24.75
2022-07-25T11:55:16.473Z,24.71
2022-07-25T11:57:45.762Z,24.68
2022-07-25T12:00:17.395Z,24.53
2022-07-25T12:02:44.676Z,24.39
2022-07-25T12:05:16.550Z,24.49
2022-07-25T12:07:51.469Z,24.42
2022-07-25T12:10:23.733Z,24.30
2022-07-25T12:12:54.751Z,24.32
2022-07-25T12:15:24.265Z,24.37
2022-07-25T12:17:52.850Z,24.44
2022-07-25T12:20:28.145Z,24.50
2022-07-25T12:22:56.849Z,24.57
2022-07-25T12:25:28.905Z,24.51
2022-07-25T12:27:59.036Z,24.39
2022-07-25T12:30:27.761Z,24.30
2022-07-25T12:32:54.937Z,24.28
2022-07-25T12:35:21.446Z,24.24
2022-07-25T12:37:48.229Z,24.21
2022-07-25T12:40:16.533Z,24.09
2022-07-25T12:42:43.801Z,24.00
2022-07-25T12:45:11.983Z,23.99
2022-07-25T12:47:38.691Z,23.89
2022-07-25T12:50:06.563Z,23.81
2022-07-25T12:52:33.410Z,23.78
2022-07-25T12:54:59.936Z,23.70
2022-07-25T12:57:27.007Z,23.93
2022-07-25T12:59:53.516Z,23.89
2022-07-25T13:02:20.081Z,24.15
2022-07-25T13:04:46.630Z,24.32
2022-07-25T13:07:13.569Z,24.44
2022-07-25T13:09:40.079Z,24.52
2022-07-25T13:12:06.908Z,24.56
2022-07-25T13:14:33.428Z,24.58
2022-07-25T13:17:00.373Z,24.66
2022-07-25T13:19:27.325Z,24.88
2022-07-25T13:21:53.825Z,24.85
2022-07-25T13:24:20.337Z,24.78
2022-07-25T13:26:46.869Z,24.78
2022-07-25T13:29:13.410Z,24.65
2022-07-25T13:31:41.223Z,24.48
2022-07-25T13:34:08.583Z,24.39
2022-07-25T13:36:36.779Z,24.37
2022-07-25T13:39:04.662Z,24.30
2022-07-25T13:41:31.547Z,24.29
2022-07-25T13:43:58.080Z,24.32
2022-07-25T13:46:24.706Z,24.24
2022-07-25T13:48:51.337Z,24.33
2022-07-25T13:51:17.894Z,24.43
2022-07-25T13:53:44.918Z,24.51
2022-07-25T13:56:13.161Z,24.38
2022-07-25T13:58:40.612Z,24.37
2022-07-25T14:01:11.617Z,24.49
2022-07-25T14:03:38.530Z,24.50
2022-07-25T14:06:06.026Z,24.72
2022-07-25T14:08:32.540Z,25.05
2022-07-25T14:10:59.055Z,25.10
2022-07-25T14:13:25.574Z,25.12
2022-07-25T14:15:52.328Z,25.24
2022-07-25T14:18:18.942Z,25.51
2022-07-25T14:20:46.434Z,25.44
2022-07-25T14:23:12.967Z,25.33
2022-07-25T14:25:39.574Z,25.28
2022-07-25T14:28:06.146Z,25.37
2022-07-25T14:30:32.662Z,25.31
2022-07-25T14:32:59.265Z,25.49
2022-07-25T14:35:31.865Z,25.64
2022-07-25T14:37:58.947Z,25.54
2022-07-25T14:40:25.535Z,25.42
2022-07-25T14:42:52.100Z,25.28
2022-07-25T14:45:18.934Z,25.21
2022-07-25T14:47:45.483Z,25.04
2022-07-25T14:50:12.082Z,25.15
2022-07-25T14:52:38.741Z,25.00
2022-07-25T14:55:06.135Z,24.98
2022-07-25T14:57:32.741Z,24.90
2022-07-25T15:00:01.814Z,24.94
2022-07-25T15:02:28.404Z,24.96
2022-07-25T15:04:55.049Z,24.90
2022-07-25T15:07:21.788Z,24.93
2022-07-25T15:09:48.289Z,25.06
2022-07-25T15:12:16.605Z,25.19
2022-07-25T15:14:43.847Z,25.27
2022-07-25T15:17:10.642Z,25.41
2022-07-25T15:19:37.255Z,25.34
2022-07-25T15:22:03.794Z,25.24
2022-07-25T15:24:36.299Z,25.28
2022-07-25T15:27:10.866Z,25.12
2022-07-25T15:29:37.385Z,25.33
2022-07-25T15:32:05.544Z,25.21
2022-07-25T15:34:33.901Z,25.09
2022-07-25T15:37:01.480Z,25.03
2022-07-25T15:39:28.016Z,25.01
2022-07-25T15:41:54.529Z,25.02
2022-07-25T15:44:21.057Z,24.95
2022-07-25T15:46:47.705Z,25.04
2022-07-25T15:49:15.251Z,24.91
2022-07-25T15:51:41.827Z,24.91
2022-07-25T15:54:08.741Z,24.94
2022-07-25T15:56:35.291Z,24.90
2022-07-25T15:59:01.898Z,24.85
2022-07-25T16:01:28.472Z,24.85
2022-07-25T16:03:59.661Z,24.83
2022-07-25T16:06:26.496Z,24.99
2022-07-25T16:08:53.145Z,24.93
2022-07-25T16:11:25.475Z,24.79
2022-07-25T16:13:52.340Z,24.70
2022-07-25T16:16:21.802Z,24.75
2022-07-25T16:18:48.503Z,24.63
2022-07-25T16:21:15.001Z,24.58
2022-07-25T16:23:45.265Z,24.50
2022-07-25T16:26:12.669Z,24.47
2022-07-25T16:28:40.641Z,24.44
2022-07-25T16:31:07.329Z,24.39
2022-07-25T16:33:34.161Z,24.34
2022-07-25T16:36:00.783Z,24.32
2022-07-25T16:38:28.765Z,24.19
2022-07-25T16:40:55.309Z,24.28
2022-07-25T16:43:22.996Z,24.27
2022-07-25T16:45:49.797Z,24.32
2022-07-25T16:48:16.328Z,24.30
2022-07-25T16:50:42.880Z,24.27
2022-07-25T16:53:09.695Z,24.25
2022-07-25T16:55:36.227Z,24.14
2022-07-25T16:58:02.772Z,24.33
2022-07-25T17:00:29.489Z,24.59
2022-07-25T17:02:56.078Z,24.78
2022-07-25T17:05:22.853Z,24.91
2022-07-25T17:07:57.021Z,25.02
2022-07-25T17:10:25.342Z,25.01
2022-07-25T17:12:52.160Z,24.92
2022-07-25T17:15:18.771Z,24.81
2022-07-25T17:17:45.638Z,24.76
2022-07-25T17:20:12.621Z,24.61
2022-07-25T17:22:39.187Z,24.36
2022-07-25T17:25:06.576Z,24.13
2022-07-25T17:27:33.178Z,24.11
2022-07-25T17:29:59.740Z,24.04
2022-07-25T17:32:29.984Z,24.00
2022-07-25T17:34:57.713Z,23.94
2022-07-25T17:37:24.448Z,23.96
2022-07-25T17:39:51.092Z,23.87
2022-07-25T17:42:22.335Z,23.93
2022-07-25T17:44:52.337Z,24.08
2022-07-25T17:47:19.160Z,23.93
2022-07-25T17:49:46.095Z,23.94
2022-07-25T17:52:12.704Z,23.80
2022-07-25T17:54:40.160Z,23.82
2022-07-25T17:57:07.072Z,23.75
2022-07-25T17:59:34.241Z,23.69
2022-07-25T18:02:04.330Z,23.54
2022-07-25T18:04:31.154Z,23.48
2022-07-25T18:06:58.331Z,23.59
2022-07-25T18:09:25.160Z,23.56
2022-07-25T18:11:51.694Z,23.51
2022-07-25T18:14:18.286Z,23.56
2022-07-25T18:16:45.472Z,23.58
2022-07-25T18:19:12.522Z,23.40
2022-07-25T18:21:39.305Z,23.26
2022-07-25T18:24:06.526Z,23.03
2022-07-25T18:26:34.175Z,23.06
2022-07-25T18:29:00.733Z,22.92
2022-07-25T18:31:27.381Z,22.85
2022-07-25T18:33:54.100Z,22.90
2022-07-25T18:36:20.669Z,22.84
2022-07-25T18:38:48.573Z,22.82
2022-07-25T18:41:30.906Z,22.79
2022-07-25T18:43:57.794Z,22.73
2022-07-25T18:46:24.666Z,22.89
2022-07-25T18:48:51.885Z,22.69
2022-07-25T18:51:19.381Z,22.74
2022-07-25T18:53:48.236Z,22.60
2022-07-25T18:56:15.132Z,22.63
2022-07-25T18:58:41.689Z,22.65
2022-07-25T19:01:09.227Z,22.50
2022-07-25T19:03:37.536Z,22.49
2022-07-25T19:06:04.890Z,22.43
2022-07-25T19:08:32.581Z,22.40
2022-07-25T19:10:59.111Z,22.46
2022-07-25T19:13:48.140Z,22.25
2022-07-25T19:16:12.672Z,22.32
2022-07-25T19:18:39.806Z,22.28
2022-07-25T19:21:06.737Z,22.28
2022-07-25T19:23:33.368Z,22.49
2022-07-25T19:26:01.646Z,22.48
2022-07-25T19:28:28.917Z,22.44
2022-07-25T19:30:56.708Z,22.48
2022-07-25T19:33:24.233Z,22.49
2022-07-25T19:35:50.853Z,22.30
2022-07-25T19:38:21.557Z,22.20
2022-07-25T19:40:48.741Z,22.21
2022-07-25T19:43:15.289Z,22.23
2022-07-25T19:45:42.062Z,21.99
2022-07-25T19:48:08.609Z,22.05
2022-07-25T19:50:35.402Z,21.96
2022-07-25T19:53:01.920Z,21.96
2022-07-25T19:55:28.907Z,21.95
2022-07-25T19:57:55.988Z,22.01
2022-07-25T20:00:22.983Z,21.99
2022-07-25T20:02:49.886Z,21.95
2022-07-25T20:05:17.089Z,21.81
2022-07-25T20:07:43.632Z,21.92
2022-07-25T20:10:10.450Z,21.78
2022-07-25T20:12:36.969Z,21.58
2022-07-25T20:15:04.107Z,21.57
2022-07-25T20:17:30.615Z,21.58
2022-07-25T20:19:57.243Z,21.56
2022-07-25T20:22:23.845Z,21.73
2022-07-25T20:24:50.418Z,21.60
2022-07-25T20:27:16.961Z,21.62
2022-07-25T20:29:43.503Z,21.54
2022-07-25T20:32:10.041Z,21.59
2022-07-25T20:34:36.589Z,21.53
2022-07-25T20:37:03.269Z,21.53
2022-07-25T20:39:29.784Z,21.55
2022-07-25T20:41:56.338Z,21.55
2022-07-25T20:44:22.874Z,21.51
2022-07-25T20:46:51.408Z,21.46
2022-07-25T20:49:17.989Z,21.44
2022-07-25T20:51:44.625Z,21.45
2022-07-25T20:54:11.198Z,21.62
2022-07-25T20:56:37.771Z,21.49
2022-07-25T20:59:04.564Z,21.32
2022-07-25T21:01:31.300Z,21.43
2022-07-25T21:03:57.963Z,21.45
2022-07-25T21:06:26.996Z,21.31
2022-07-25T21:08:54.080Z,21.22
2022-07-25T21:11:20.978Z,21.18
2022-07-25T21:13:47.600Z,21.24
2022-07-25T21:16:14.331Z,21.32
2022-07-25T21:18:40.990Z,21.26
2022-07-25T21:21:11.944Z,21.10
2022-07-25T21:23:38.957Z,21.18
2022-07-25T21:26:05.679Z,21.05
2022-07-25T21:28:32.271Z,21.04
2022-07-25T21:30:58.877Z,21.06
2022-07-25T21:33:25.436Z,20.88
2022-07-25T21:35:53.647Z,20.88
2022-07-25T21:38:26.946Z,20.84
2022-07-25T21:40:57.108Z,20.71
2022-07-25T21:43:24.008Z,20.67
2022-07-25T21:45:50.601Z,20.83
2022-07-25T21:48:21.856Z,20.87
2022-07-25T21:50:48.775Z,20.76
2022-07-25T21:53:17.041Z,20.86
2022-07-25T21:55:43.548Z,21.03
2022-07-25T21:58:10.085Z,21.10
2022-07-25T22:00:41.711Z,20.90
2022-07-25T22:03:12.081Z,20.94
2022-07-25T22:05:39.256Z,20.91
2022-07-25T22:08:05.858Z,20.88
2022-07-25T22:10:33.516Z,20.75
2022-07-25T22:13:00.138Z,20.55
2022-07-25T22:15:27.197Z,20.56
2022-07-25T22:17:54.001Z,20.40
2022-07-25T22:20:20.853Z,20.53
2022-07-25T22:22:48.231Z,20.35
2022-07-25T22:25:15.874Z,20.44
2022-07-25T22:27:42.556Z,20.54
2022-07-25T22:30:14.674Z,20.44
2022-07-25T22:32:44.916Z,20.40
2022-07-25T22:35:12.538Z,20.40
2022-07-25T22:37:39.284Z,20.49
2022-07-25T22:40:06.352Z,20.31
2022-07-25T22:42:33.028Z,20.29
2022-07-25T22:44:59.585Z,20.16
2022-07-25T22:47:26.095Z,20.30
2022-07-25T22:49:52.620Z,20.18
2022-07-25T22:52:19.268Z,20.26
2022-07-25T22:54:45.851Z,20.15
2022-07-25T22:57:12.455Z,20.16
2022-07-25T22:59:39.045Z,20.24
2022-07-25T23:02:05.720Z,20.18
2022-07-25T23:04:32.377Z,19.92
2022-07-25T23:06:58.982Z,20.03
2022-07-25T23:09:25.691Z,20.16
2022-07-25T23:12:02.635Z,20.09
2022-07-25T23:14:29.212Z,19.80
2022-07-25T23:17:14.191Z,19.91
2022-07-25T23:19:40.759Z,19.94
2022-07-25T23:22:07.358Z,19.90
2022-07-25T23:24:37.655Z,19.87
2022-07-25T23:27:04.864Z,19.94
2022-07-25T23:29:31.563Z,19.83
2022-07-25T23:31:58.311Z,19.65
2022-07-25T23:34:24.901Z,19.79
2022-07-25T23:36:51.557Z,19.75
2022-07-25T23:39:18.274Z,19.93
2022-07-25T23:41:44.836Z,19.80
2022-07-25T23:44:11.645Z,19.71
2022-07-25T23:46:38.779Z,19.79
2022-07-25T23:49:06.729Z,19.60
2022-07-25T23:51:33.692Z,19.65
2022-07-25T23:54:00.297Z,19.72
2022-07-25T23:56:28.007Z,19.78
2022-07-25T23:58:54.707Z,19.77
